Time;durP1;ratioP1;P1;durP2;ratioP2;P2;SDS_P1;SDS_P2;PMS_P1;PMS_P2;Temp;Humidity;BMP_temperature;BMP_pressure;BME280_temperature;BME280_humidity;BME280_pressure;Samples;Min_cycle;Max_cycle;Signal;HPM_P1;HPM_P2
2023/08/07 00:02:25;;;;;;;8.52;2.92;;;;;;;13.60;100.00;101178.78;5124860;28;20119;-65
2023/08/07 00:04:53;;;;;;;16.58;3.58;;;;;;;13.58;100.00;101171.97;5122505;28;20043;-62
2023/08/07 00:07:21;;;;;;;10.52;2.90;;;;;;;13.59;100.00;101171.69;5126224;28;20133;-64
2023/08/07 00:09:48;;;;;;;9.13;3.20;;;;;;;13.58;100.00;101161.81;5128895;28;20165;-63
2023/08/07 00:12:16;;;;;;;9.18;2.40;;;;;;;13.59;100.00;101171.69;5118758;28;20498;-64
2023/08/07 00:14:46;;;;;;;10.25;3.13;;;;;;;13.60;100.00;101183.47;5117194;28;20441;-67
2023/08/07 00:17:14;;;;;;;5.63;2.20;;;;;;;13.61;100.00;101169.50;5117528;28;20519;-65
2023/08/07 00:19:42;;;;;;;9.70;2.50;;;;;;;13.64;100.00;101168.94;5116015;28;20043;-66
2023/08/07 00:22:10;;;;;;;9.60;2.80;;;;;;;13.63;100.00;101166.47;5117898;28;20039;-64
2023/08/07 00:24:37;;;;;;;7.10;2.63;;;;;;;13.62;100.00;101182.06;5112531;28;20051;-65
2023/08/07 00:27:06;;;;;;;8.10;2.45;;;;;;;13.63;100.00;101169.19;5117886;28;20043;-66
2023/08/07 00:29:34;;;;;;;9.65;2.95;;;;;;;13.61;100.00;101174.97;5117045;28;20501;-65
2023/08/07 00:32:02;;;;;;;7.43;2.70;;;;;;;13.62;100.00;101175.78;5116996;28;20052;-65
2023/08/07 00:34:30;;;;;;;8.68;2.80;;;;;;;13.61;100.00;101177.72;5116951;28;20040;-64
2023/08/07 00:36:58;;;;;;;5.90;2.25;;;;;;;13.61;100.00;101174.97;5116729;28;20044;-64
2023/08/07 00:39:26;;;;;;;12.23;3.40;;;;;;;13.66;100.00;101168.63;5117593;28;20048;-65
2023/08/07 00:41:54;;;;;;;9.85;2.55;;;;;;;13.66;100.00;101170.56;5117335;28;20047;-64
2023/08/07 00:44:25;;;;;;;6.53;2.55;;;;;;;13.64;100.00;101179.88;5115479;28;20044;-65
2023/08/07 00:46:53;;;;;;;8.90;2.53;;;;;;;13.65;100.00;101169.75;5115653;28;20047;-64
2023/08/07 00:49:21;;;;;;;10.48;3.13;;;;;;;13.64;100.00;101162.66;5095548;28;20040;-65
2023/08/07 00:51:49;;;;;;;8.82;2.92;;;;;;;13.64;100.00;101179.88;5095457;28;20369;-65
2023/08/07 00:54:19;;;;;;;8.00;2.80;;;;;;;13.66;100.00;101167.81;5096543;28;20046;-65
2023/08/07 00:56:47;;;;;;;9.48;3.00;;;;;;;13.64;100.00;101171.66;5112436;28;20073;-65
2023/08/07 00:59:15;;;;;;;10.20;3.17;;;;;;;13.64;100.00;101165.38;5115159;28;20043;-67
2023/08/07 01:01:43;;;;;;;13.75;2.90;;;;;;;13.63;100.00;101172.75;5115836;28;20092;-64
2023/08/07 01:04:11;;;;;;;9.93;2.78;;;;;;;13.63;100.00;101178.22;5094103;28;20044;-63
2023/08/07 01:06:39;;;;;;;10.40;2.78;;;;;;;13.66;100.00;101181.50;5095398;28;20086;-65
2023/08/07 01:09:07;;;;;;;10.27;2.95;;;;;;;13.63;100.00;101182.88;5083262;28;20381;-65
2023/08/07 01:11:42;;;;;;;8.80;2.70;;;;;;;13.63;100.00;101188.38;5096779;28;20052;-65
2023/08/07 01:14:29;;;;;;;8.82;2.50;;;;;;;13.63;100.00;101180.16;5097528;28;20369;-64
2023/08/07 01:17:13;;;;;;;7.32;2.40;;;;;;;13.61;100.00;101185.94;5095053;28;20052;-64
2023/08/07 01:19:41;;;;;;;17.25;3.00;;;;;;;13.63;100.00;101185.63;5115404;28;20044;-64
2023/08/07 01:22:17;;;;;;;8.38;3.55;;;;;;;13.62;100.00;101186.75;5098410;28;20047;-64
2023/08/07 01:24:49;;;;;;;9.35;2.80;;;;;;;13.62;100.00;101187.56;5114618;28;20051;-65
2023/08/07 01:27:20;;;;;;;11.98;3.03;;;;;;;13.64;100.00;101192.75;5099080;28;20048;-65
2023/08/07 01:30:16;;;;;;;11.85;3.17;;;;;;;13.66;100.00;101195.19;5097873;28;20108;-65
2023/08/07 01:32:53;;;;;;;;;;;;;;;13.67;100.00;101205.88;5116848;28;20104;-64
2023/08/07 01:35:25;;;;;;;10.35;2.90;;;;;;;13.68;100.00;101207.50;5114431;28;19919;-66
2023/08/07 01:37:55;;;;;;;10.30;2.90;;;;;;;13.66;100.00;101214.38;5115266;28;20039;-63
2023/08/07 01:40:24;;;;;;;12.57;3.40;;;;;;;13.70;100.00;101212.72;5114988;28;20048;-64
2023/08/07 01:42:53;;;;;;;9.75;3.08;;;;;;;13.68;100.00;101212.19;5098365;28;20066;-65
2023/08/07 01:45:25;;;;;;;12.45;3.17;;;;;;;13.70;100.00;101207.25;5109771;28;20069;-64
2023/08/07 01:47:54;;;;;;;7.70;3.10;;;;;;;13.66;100.00;101206.97;5099018;28;20054;-64
2023/08/07 01:50:23;;;;;;;10.00;2.92;;;;;;;13.66;100.00;101204.22;5116350;28;20043;-63
2023/08/07 01:52:51;;;;;;;10.52;3.20;;;;;;;13.70;100.00;101209.97;5081329;28;20044;-64
2023/08/07 01:55:20;;;;;;;9.90;2.90;;;;;;;13.68;100.00;101206.69;5114083;28;20506;-66
2023/08/07 01:57:52;;;;;;;10.60;3.17;;;;;;;13.70;100.00;101215.47;5114962;28;20031;-66
2023/08/07 02:00:20;;;;;;;9.13;3.10;;;;;;;13.68;100.00;101218.47;5113484;28;20049;-64
2023/08/07 02:02:48;;;;;;;11.40;3.03;;;;;;;13.67;100.00;101216.84;5115959;28;20054;-66
2023/08/07 02:05:17;;;;;;;12.40;3.35;;;;;;;13.66;100.00;101215.19;5115623;28;20039;-64
2023/08/07 02:07:45;;;;;;;10.57;3.42;;;;;;;13.66;100.00;101231.63;5093431;28;20116;-65
2023/08/07 02:10:12;;;;;;;16.10;3.97;;;;;;;13.70;100.00;101231.88;5115262;28;20050;-63
2023/08/07 02:12:42;;;;;;;10.85;3.10;;;;;;;13.64;100.00;101225.63;5081344;28;20054;-64
2023/08/07 02:15:10;;;;;;;7.35;2.60;;;;;;;13.63;100.00;101226.69;5114681;28;20055;-64
2023/08/07 02:17:40;;;;;;;9.73;2.92;;;;;;;13.60;100.00;101225.34;5114697;28;20051;-65
2023/08/07 02:20:09;;;;;;;10.38;2.97;;;;;;;13.59;100.00;101220.97;5114074;28;20048;-64
2023/08/07 02:22:37;;;;;;;9.90;2.92;;;;;;;13.57;100.00;101230.56;5114430;28;20510;-65
2023/08/07 02:25:05;;;;;;;8.27;2.78;;;;;;;13.56;100.00;101221.50;5115610;28;20054;-64
2023/08/07 02:27:33;;;;;;;9.98;2.75;;;;;;;13.53;100.00;101222.06;5113166;28;20040;-63
2023/08/07 02:30:03;;;;;;;9.02;3.10;;;;;;;13.53;100.00;101226.75;5114621;28;20050;-64
2023/08/07 02:32:30;;;;;;;12.85;3.30;;;;;;;13.51;100.00;101235.22;5115003;28;20392;-64
2023/08/07 02:34:58;;;;;;;9.18;3.20;;;;;;;13.49;100.00;101237.41;5113840;28;20560;-63
2023/08/07 02:37:26;;;;;;;10.60;3.20;;;;;;;13.50;100.00;101238.25;5112724;28;20082;-65
2023/08/07 02:39:54;;;;;;;11.82;2.95;;;;;;;13.49;100.00;101231.94;5097356;28;20058;-64
2023/08/07 02:42:22;;;;;;;14.40;3.15;;;;;;;13.50;100.00;101228.13;5113873;28;20052;-64
2023/08/07 02:44:49;;;;;;;12.57;3.17;;;;;;;13.48;100.00;101224.84;5115455;28;20468;-64
2023/08/07 02:47:18;;;;;;;9.85;3.20;;;;;;;13.48;100.00;101230.31;5093688;28;20048;-66
2023/08/07 02:49:46;;;;;;;13.23;3.92;;;;;;;13.49;100.00;101225.66;5112801;28;20044;-63
2023/08/07 02:52:14;;;;;;;13.82;3.80;;;;;;;13.48;100.00;101227.56;5097756;28;20047;-63
2023/08/07 02:54:42;;;;;;;8.63;3.10;;;;;;;13.51;100.00;101229.75;5114176;28;20052;-64
2023/08/07 02:57:10;;;;;;;9.90;3.25;;;;;;;13.51;100.00;101228.94;5095900;28;20040;-64
2023/08/07 02:59:37;;;;;;;11.13;3.40;;;;;;;13.49;100.00;101237.41;5112258;28;20035;-65
2023/08/07 03:02:05;;;;;;;16.50;3.75;;;;;;;13.48;100.00;101233.03;5114565;28;20054;-63
2023/08/07 03:04:33;;;;;;;12.65;3.60;;;;;;;13.50;100.00;101232.78;5113050;28;20448;-64
2023/08/07 03:07:01;;;;;;;11.15;3.50;;;;;;;13.49;100.00;101239.34;5114327;28;20092;-65
2023/08/07 03:09:29;;;;;;;11.52;3.28;;;;;;;13.53;100.00;101232.22;5110065;28;20055;-64
2023/08/07 03:12:02;;;;;;;11.38;3.55;;;;;;;13.52;100.00;101233.31;5114466;28;20488;-64
2023/08/07 03:14:31;;;;;;;9.88;3.55;;;;;;;13.52;100.00;101223.19;5113818;28;20056;-64
2023/08/07 03:16:59;;;;;;;12.60;3.58;;;;;;;13.54;100.00;101226.47;5062000;28;20402;-64
2023/08/07 03:19:27;;;;;;;12.32;3.60;;;;;;;13.53;100.00;101219.34;5111286;28;20071;-64
2023/08/07 03:21:54;;;;;;;8.18;2.97;;;;;;;13.54;100.00;101218.25;5114425;28;20046;-64
2023/08/07 03:24:22;;;;;;;12.07;3.50;;;;;;;13.54;100.00;101231.09;5113104;28;20048;-65
2023/08/07 03:26:51;;;;;;;13.75;3.67;;;;;;;13.51;100.00;101221.53;5114431;28;20055;-65
2023/08/07 03:29:18;;;;;;;7.85;2.95;;;;;;;13.56;100.00;101217.97;5111311;28;20495;-66
2023/08/07 03:31:47;;;;;;;11.40;3.35;;;;;;;13.52;100.00;101220.44;5112432;28;20456;-63
2023/08/07 03:34:15;;;;;;;11.43;3.50;;;;;;;13.52;100.00;101214.16;5093152;28;20055;-63
2023/08/07 03:36:43;;;;;;;13.40;3.50;;;;;;;13.53;100.00;101216.59;5093246;28;20048;-64
2023/08/07 03:39:12;;;;;;;12.23;3.67;;;;;;;13.51;100.00;101210.59;5105405;28;20036;-65
2023/08/07 03:41:40;;;;;;;12.27;3.45;;;;;;;13.52;100.00;101220.44;5114640;28;20055;-64
2023/08/07 03:44:11;;;;;;;17.02;4.40;;;;;;;13.55;100.00;101219.88;5112750;28;20518;-64
2023/08/07 03:46:39;;;;;;;12.75;3.25;;;;;;;13.57;100.00;101214.16;5114136;28;20129;-64
2023/08/07 03:49:07;;;;;;;10.40;3.35;;;;;;;13.58;100.00;101221.25;5095793;28;20046;-64
2023/08/07 03:51:35;;;;;;;13.23;3.40;;;;;;;13.58;100.00;101222.06;5112474;28;20058;-63
2023/08/07 03:54:02;;;;;;;8.82;2.92;;;;;;;13.58;100.00;101216.59;5112640;28;20483;-64
2023/08/07 03:56:36;;;;;;;12.98;4.32;;;;;;;13.58;100.00;101216.59;5063467;28;20047;-65
2023/08/07 03:59:04;;;;;;;12.88;3.33;;;;;;;13.58;100.00;101219.31;5115483;28;20043;-64
2023/08/07 04:01:32;;;;;;;12.70;3.42;;;;;;;13.59;100.00;101215.50;5107394;28;20521;-65
2023/08/07 04:04:00;;;;;;;9.30;3.22;;;;;;;13.60;100.00;101211.66;5112842;28;20059;-65
2023/08/07 04:06:28;;;;;;;10.75;3.80;;;;;;;13.59;100.00;101215.50;5095493;28;20052;-64
2023/08/07 04:08:56;;;;;;;12.63;3.72;;;;;;;13.60;100.00;101211.66;5113760;28;20042;-64
2023/08/07 04:11:24;;;;;;;12.35;3.33;;;;;;;13.62;100.00;101214.13;5112170;28;20710;-62
2023/08/07 04:13:52;;;;;;;11.98;3.40;;;;;;;13.60;100.00;101214.38;5096124;28;20039;-65
2023/08/07 04:16:20;;;;;;;14.98;4.43;;;;;;;13.59;100.00;101218.25;5095567;28;20051;-65
2023/08/07 04:18:48;;;;;;;11.00;3.40;;;;;;;13.61;100.00;101218.78;5112193;28;20055;-65
2023/08/07 04:21:16;;;;;;;11.15;3.38;;;;;;;13.61;100.00;101210.56;5113632;28;20381;-63
2023/08/07 04:23:44;;;;;;;13.30;3.28;;;;;;;13.62;100.00;101217.69;5116348;28;20092;-63
2023/08/07 04:26:11;;;;;;;12.77;3.47;;;;;;;13.64;100.00;101220.16;5109867;28;20092;-64
2023/08/07 04:28:39;;;;;;;10.50;2.95;;;;;;;13.64;100.00;101217.41;5104431;28;20060;-61
2023/08/07 04:31:08;;;;;;;12.77;3.42;;;;;;;13.63;100.00;101222.03;5101456;28;20127;-64
2023/08/07 04:33:36;;;;;;;11.48;3.08;;;;;;;13.64;100.00;101225.63;5098856;28;20044;-63
2023/08/07 04:36:04;;;;;;;11.82;3.10;;;;;;;13.62;100.00;101220.41;5113098;28;20094;-61
2023/08/07 04:38:32;;;;;;;14.50;3.35;;;;;;;13.62;100.00;101228.63;5101037;28;20044;-61
2023/08/07 04:40:59;;;;;;;9.95;3.33;;;;;;;13.63;100.00;101230.25;5130026;28;20126;-63
2023/08/07 04:43:27;;;;;;;7.53;2.90;;;;;;;13.64;100.00;101236.56;5117664;28;20039;-64
2023/08/07 04:45:55;;;;;;;11.50;3.75;;;;;;;13.62;100.00;101231.38;5117334;28;20051;-64
2023/08/07 04:48:25;;;;;;;13.93;3.55;;;;;;;13.60;100.00;101235.47;5105532;28;20047;-63
2023/08/07 04:50:52;;;;;;;9.68;3.28;;;;;;;13.63;100.00;101232.19;5122063;28;20507;-63
2023/08/07 04:53:20;;;;;;;10.82;3.08;;;;;;;13.60;100.00;101239.03;5122843;28;20158;-64
2023/08/07 04:55:48;;;;;;;8.13;2.72;;;;;;;13.61;100.00;101245.31;5121238;28;20051;-62
2023/08/07 04:58:16;;;;;;;9.48;2.85;;;;;;;13.60;100.00;101239.03;5118942;28;20055;-65
2023/08/07 05:00:43;;;;;;;11.98;3.85;;;;;;;13.57;100.00;101250.53;5115720;28;20050;-64
2023/08/07 05:03:11;;;;;;;13.40;3.30;;;;;;;13.54;100.00;101248.38;5117467;28;20044;-65
2023/08/07 05:05:39;;;;;;;15.63;3.20;;;;;;;13.55;100.00;101257.41;5116882;28;20050;-63
2023/08/07 05:08:07;;;;;;;11.05;3.55;;;;;;;13.56;100.00;101254.38;5098733;28;20044;-63
2023/08/07 05:10:34;;;;;;;12.35;3.42;;;;;;;13.52;100.00;101253.31;5116105;28;20100;-63
2023/08/07 05:13:02;;;;;;;7.05;2.85;;;;;;;13.50;100.00;101244.53;5115823;28;20051;-66
2023/08/07 05:15:31;;;;;;;13.68;3.60;;;;;;;13.49;100.00;101248.34;5115791;28;20054;-65
2023/08/07 05:17:58;;;;;;;9.23;3.05;;;;;;;13.46;100.00;101265.34;5116717;28;20050;-64
2023/08/07 05:20:26;;;;;;;9.73;3.20;;;;;;;13.47;100.00;101247.84;5113474;28;20051;-65
2023/08/07 05:22:55;;;;;;;11.32;3.22;;;;;;;13.46;100.00;101262.59;5115114;28;20047;-64
2023/08/07 05:25:23;;;;;;;10.05;2.95;;;;;;;13.47;100.00;101261.53;5115921;28;20043;-66
2023/08/07 05:27:51;;;;;;;10.38;3.03;;;;;;;13.47;100.00;101272.47;5116345;28;20043;-64
2023/08/07 05:30:19;;;;;;;10.32;2.95;;;;;;;13.48;100.00;101267.81;5115626;28;20051;-66
2023/08/07 05:32:47;;;;;;;9.98;3.08;;;;;;;13.49;100.00;101275.72;5093565;28;20044;-65
2023/08/07 05:35:15;;;;;;;7.50;2.78;;;;;;;13.51;100.00;101281.75;5115595;28;20050;-63
2023/08/07 05:37:42;;;;;;;11.20;3.08;;;;;;;13.51;100.00;101275.47;5116635;28;20044;-64
2023/08/07 05:40:11;;;;;;;8.35;3.08;;;;;;;13.52;100.00;101274.38;5116566;28;20078;-64
2023/08/07 05:42:41;;;;;;;11.32;3.13;;;;;;;13.52;100.00;101288.06;5113278;28;20115;-64
2023/08/07 05:45:10;;;;;;;8.75;2.80;;;;;;;13.51;100.00;101284.50;5106328;28;20131;-64
2023/08/07 05:47:38;;;;;;;13.25;3.35;;;;;;;13.54;100.00;101288.59;5116441;28;20048;-66
2023/08/07 05:50:06;;;;;;;9.00;3.17;;;;;;;13.55;100.00;101299.28;5115778;28;20039;-63
2023/08/07 05:52:34;;;;;;;13.30;3.13;;;;;;;13.49;100.00;101286.69;5097412;28;20043;-66
2023/08/07 05:55:03;;;;;;;11.07;3.17;;;;;;;13.48;100.00;101296.00;5098782;28;20044;-65
2023/08/07 05:57:34;;;;;;;12.38;3.63;;;;;;;13.45;100.00;101295.75;4743921;28;10000103;-65
2023/08/07 06:00:02;;;;;;;13.23;3.30;;;;;;;13.44;100.00;101294.91;5112747;28;20052;-65
2023/08/07 06:02:39;;;;;;;11.90;3.20;;;;;;;13.44;100.00;101300.38;5112772;28;20048;-65
2023/08/07 06:05:09;;;;;;;14.73;3.33;;;;;;;13.44;100.00;101297.66;5094552;28;20054;-66
2023/08/07 06:07:37;;;;;;;14.05;3.22;;;;;;;13.45;100.00;101302.03;5101648;28;20062;-65
2023/08/07 06:10:05;;;;;;;13.68;3.42;;;;;;;13.42;100.00;101297.94;5110978;28;20108;-65
2023/08/07 06:12:33;;;;;;;12.00;3.30;;;;;;;13.45;100.00;101296.56;5111039;28;20055;-66
2023/08/07 06:15:01;;;;;;;16.77;3.38;;;;;;;13.46;100.00;101303.66;5113358;28;20056;-65
2023/08/07 06:17:29;;;;;;;13.20;3.35;;;;;;;13.45;100.00;101299.31;5111899;28;20047;-65
2023/08/07 06:19:57;;;;;;;12.18;3.55;;;;;;;13.46;100.00;101311.88;5094310;28;20044;-65
2023/08/07 06:22:24;;;;;;;13.70;3.40;;;;;;;13.48;100.00;101306.97;5110421;28;20039;-65
2023/08/07 06:24:52;;;;;;;15.13;3.97;;;;;;;13.49;100.00;101313.25;5110737;28;20050;-65
2023/08/07 06:27:22;;;;;;;12.05;3.17;;;;;;;13.49;100.00;101325.00;5111823;28;20059;-67
2023/08/07 06:29:50;;;;;;;11.43;3.45;;;;;;;13.50;100.00;101320.38;5110708;28;20048;-65
2023/08/07 06:32:18;;;;;;;15.05;3.72;;;;;;;13.50;100.00;101323.94;5110802;28;20063;-65
2023/08/07 06:34:46;;;;;;;14.02;3.45;;;;;;;13.49;100.00;101327.75;5109341;28;20050;-64
2023/08/07 06:37:14;;;;;;;10.95;3.30;;;;;;;13.51;100.00;101331.03;5110428;28;20743;-64
2023/08/07 06:39:42;;;;;;;16.58;3.63;;;;;;;13.51;100.00;101331.03;5093535;28;20055;-65
2023/08/07 06:42:09;;;;;;;11.20;3.75;;;;;;;13.55;100.00;101329.41;5094887;28;20507;-61
2023/08/07 06:44:38;;;;;;;13.13;3.80;;;;;;;13.58;100.00;101339.78;5110687;28;20084;-65
2023/08/07 06:47:07;;;;;;;13.23;3.72;;;;;;;13.58;100.00;101330.75;5113952;28;20091;-67
2023/08/07 06:49:37;;;;;;;18.50;3.92;;;;;;;13.59;100.00;101341.44;5105031;28;20477;-64
2023/08/07 06:52:05;;;;;;;12.70;3.65;;;;;;;13.62;100.00;101346.38;5092443;28;20048;-64
2023/08/07 06:54:33;;;;;;;13.75;3.97;;;;;;;13.64;100.00;101343.38;5095315;28;20052;-64
2023/08/07 06:57:01;;;;;;;11.52;3.17;;;;;;;13.67;100.00;101350.22;5113949;28;20055;-65
2023/08/07 06:59:29;;;;;;;11.38;3.70;;;;;;;13.67;100.00;101352.94;5114184;28;20050;-64
2023/08/07 07:01:56;;;;;;;11.38;3.08;;;;;;;13.67;100.00;101352.94;5107752;28;20492;-64
2023/08/07 07:04:25;;;;;;;12.07;3.22;;;;;;;13.65;100.00;101366.91;5097458;28;20089;-65
2023/08/07 07:06:52;;;;;;;12.05;3.53;;;;;;;13.64;100.00;101368.81;5115117;28;20074;-64
2023/08/07 07:09:20;;;;;;;14.55;3.33;;;;;;;13.65;100.00;101358.69;5118556;28;20392;-66
2023/08/07 07:11:48;;;;;;;16.17;3.35;;;;;;;13.68;100.00;101371.00;5117713;27;20048;-64
2023/08/07 07:14:16;;;;;;;13.77;3.42;;;;;;;13.70;100.00;101369.63;5114016;28;20399;-63
2023/08/07 07:16:44;;;;;;;11.32;3.65;;;;;;;13.74;100.00;101368.00;5106584;28;20039;-64
2023/08/07 07:19:11;;;;;;;12.15;3.65;;;;;;;13.78;100.00;101379.19;5112829;28;20050;-65
2023/08/07 07:21:39;;;;;;;8.02;3.13;;;;;;;13.82;100.00;101374.81;5113614;28;20048;-65
2023/08/07 07:24:07;;;;;;;13.45;3.88;;;;;;;13.83;100.00;101376.47;5111374;28;20100;-64
2023/08/07 07:26:35;;;;;;;11.32;3.55;;;;;;;13.85;100.00;101393.44;5095861;28;20051;-65
2023/08/07 07:29:03;;;;;;;14.88;3.47;;;;;;;13.86;100.00;101397.84;5111192;28;20043;-62
2023/08/07 07:31:31;;;;;;;14.38;3.55;;;;;;;13.85;100.00;101396.19;5114136;28;20047;-65
2023/08/07 07:33:59;;;;;;;10.27;2.90;;;;;;;13.85;100.00;101390.69;5115384;28;20050;-64
2023/08/07 07:36:27;;;;;;;11.60;3.33;;;;;;;13.92;100.00;101406.84;5092211;28;20100;-67
2023/08/07 07:38:54;;;;;;;13.55;3.00;;;;;;;14.02;100.00;101404.09;5103531;28;20047;-64
2023/08/07 07:41:23;;;;;;;9.65;3.47;;;;;;;14.06;100.00;101410.66;5114444;28;20046;-65
2023/08/07 07:43:51;;;;;;;11.95;3.47;;;;;;;14.02;100.00;101410.41;5114053;28;20043;-64
2023/08/07 07:46:22;;;;;;;8.18;3.15;;;;;;;14.02;100.00;101412.31;5114135;28;20060;-64
2023/08/07 07:48:49;;;;;;;11.70;3.45;;;;;;;13.98;100.00;101425.75;5096665;28;20488;-62
2023/08/07 07:51:17;;;;;;;10.32;3.50;;;;;;;14.00;100.00;101429.03;5114455;28;20043;-62
2023/08/07 07:53:45;;;;;;;10.77;3.05;;;;;;;14.06;100.00;101427.13;5113184;28;20054;-64
2023/08/07 07:56:21;;;;;;;12.43;3.95;;;;;;;14.09;100.00;101431.22;5113697;28;20043;-65
2023/08/07 07:58:49;;;;;;;14.38;3.72;;;;;;;14.12;100.00;101441.63;5112967;28;20054;-63
2023/08/07 08:01:18;;;;;;;13.45;3.47;;;;;;;14.07;100.00;101440.53;5113617;28;20070;-63
2023/08/07 08:03:45;;;;;;;18.55;4.45;;;;;;;14.07;100.00;101439.72;5113789;28;20052;-64
2023/08/07 08:06:13;;;;;;;10.70;3.53;;;;;;;14.05;100.00;101431.78;5117267;28;20059;-64
2023/08/07 08:08:42;;;;;;;12.73;3.30;;;;;;;14.05;100.00;101437.25;5100537;28;20104;-64
2023/08/07 08:11:10;;;;;;;10.55;3.70;;;;;;;14.07;100.00;101432.31;5118303;28;20047;-63
2023/08/07 08:13:39;;;;;;;11.38;3.53;;;;;;;14.10;100.00;101446.56;5118404;28;20052;-62
2023/08/07 08:16:07;;;;;;;15.15;3.53;;;;;;;14.09;100.00;101437.50;5116708;28;20040;-64
2023/08/07 08:18:35;;;;;;;12.00;3.53;;;;;;;14.12;100.00;101438.88;5116733;28;20040;-63
2023/08/07 08:21:03;;;;;;;14.98;3.72;;;;;;;14.11;100.00;101437.25;5117601;28;20047;-65
2023/08/07 08:23:32;;;;;;;10.95;3.63;;;;;;;14.12;100.00;101450.69;5118286;28;20044;-64
2023/08/07 08:26:00;;;;;;;12.30;3.97;;;;;;;14.17;100.00;101444.38;5117921;28;20047;-64
2023/08/07 08:28:28;;;;;;;12.68;3.53;;;;;;;14.23;100.00;101451.47;5117640;28;20044;-64
2023/08/07 08:30:56;;;;;;;14.50;4.30;;;;;;;14.30;100.00;101451.19;5116072;28;20052;-74
2023/08/07 08:33:23;;;;;;;12.52;3.85;;;;;;;14.38;100.00;101451.47;5097791;28;20074;-62
2023/08/07 08:35:51;;;;;;;12.52;3.50;;;;;;;14.45;100.00;101448.41;5102959;28;20059;-63
2023/08/07 08:38:21;;;;;;;12.40;3.55;;;;;;;14.54;100.00;101457.72;5116696;28;20055;-64
2023/08/07 08:40:52;;;;;;;13.85;3.45;;;;;;;14.61;100.00;101450.03;5117428;28;20051;-63
2023/08/07 08:43:20;;;;;;;11.05;3.78;;;;;;;14.71;100.00;101465.63;5116887;28;20499;-65
2023/08/07 08:45:48;;;;;;;14.10;4.00;;;;;;;14.77;100.00;101453.53;5117124;28;20047;-63
2023/08/07 08:48:21;;;;;;;17.63;3.78;;;;;;;14.86;100.00;101462.00;5101290;28;20055;-64
2023/08/07 08:50:50;;;;;;;13.60;4.03;;;;;;;14.95;100.00;101454.81;5101433;28;20123;-64
2023/08/07 08:53:18;;;;;;;15.10;4.20;;;;;;;14.98;100.00;101465.22;5078340;28;20104;-62
2023/08/07 08:55:47;;;;;;;13.73;3.55;;;;;;;15.03;100.00;101472.63;5132668;28;20115;-58
2023/08/07 08:58:16;;;;;;;13.77;3.60;;;;;;;15.01;100.00;101458.34;5125148;28;20054;-65
2023/08/07 09:00:43;;;;;;;13.38;3.80;;;;;;;15.04;100.00;101460.56;5118560;28;20668;-64
2023/08/07 09:03:12;;;;;;;12.02;3.50;;;;;;;15.05;100.00;101454.75;5126293;28;20127;-64
2023/08/07 09:05:40;;;;;;;13.68;3.60;;;;;;;15.08;100.00;101469.84;5133564;28;20063;-63
2023/08/07 09:08:09;;;;;;;16.60;3.92;;;;;;;15.12;100.00;101462.69;5132125;28;20124;-63
2023/08/07 09:10:37;;;;;;;12.10;4.03;;;;;;;15.20;100.00;101477.75;5105845;28;20139;-60
2023/08/07 09:13:11;;;;;;;14.65;3.47;;;;;;;15.28;100.00;101461.50;5121451;28;20142;-63
2023/08/07 09:15:39;;;;;;;14.05;3.90;;;;;;;15.33;100.00;101479.88;5114840;28;20032;-64
2023/08/07 09:18:08;;;;;;;17.63;4.20;;;;;;;15.36;100.00;101481.22;5117221;28;20050;-65
2023/08/07 09:20:42;;;;;;;16.67;4.15;;;;;;;15.32;100.00;101478.22;5116459;28;20048;-63
2023/08/07 09:23:10;;;;;;;15.80;3.60;;;;;;;15.34;100.00;101496.06;5115733;28;20066;-64
2023/08/07 09:25:37;;;;;;;9.73;3.42;;;;;;;15.34;96.68;101487.84;5114986;28;20035;-64
2023/08/07 09:28:06;;;;;;;14.13;3.30;;;;;;;15.38;90.69;101479.84;5115963;28;20047;-62
2023/08/07 09:30:36;;;;;;;11.68;3.10;;;;;;;15.42;90.14;101485.59;5116102;28;20100;-63
2023/08/07 09:33:05;;;;;;;11.23;3.20;;;;;;;15.45;89.50;101485.03;5065524;28;20047;-63
2023/08/07 09:35:34;;;;;;;9.63;3.38;;;;;;;15.53;86.81;101492.66;5098104;28;20163;-64
2023/08/07 09:38:02;;;;;;;12.02;3.35;;;;;;;15.59;87.20;101490.72;5081348;28;20044;-64
2023/08/07 09:40:30;;;;;;;14.75;3.83;;;;;;;15.66;86.10;101497.50;5115194;28;20088;-65
2023/08/07 09:43:02;;;;;;;9.55;3.28;;;;;;;15.73;82.52;101503.53;5116343;28;20096;-64
2023/08/07 09:45:31;;;;;;;15.25;3.60;;;;;;;15.75;82.83;101484.84;5116622;28;20048;-65
2023/08/07 09:48:00;;;;;;;12.00;3.60;;;;;;;15.82;79.95;101505.66;5114726;28;20072;-63
2023/08/07 09:50:29;;;;;;;11.18;3.05;;;;;;;15.88;81.49;101482.53;5114919;28;20043;-63
2023/08/07 09:52:57;;;;;;;12.63;3.72;;;;;;;15.91;82.88;101485.53;5115097;28;20501;-64
2023/08/07 09:55:26;;;;;;;13.00;3.67;;;;;;;15.95;85.84;101494.84;5114953;28;20084;-63
2023/08/07 09:57:54;;;;;;;13.88;3.72;;;;;;;16.02;85.85;101493.69;5114470;28;20044;-64
2023/08/07 10:00:22;;;;;;;9.40;3.30;;;;;;;16.02;83.91;101488.19;5114474;28;20047;-64
2023/08/07 10:02:51;;;;;;;11.35;3.42;;;;;;;16.02;81.61;101500.03;5116216;28;20039;-62
2023/08/07 10:05:19;;;;;;;12.52;3.33;;;;;;;16.03;82.21;101498.09;5114798;28;20064;-64
2023/08/07 10:07:48;;;;;;;10.07;3.13;;;;;;;16.02;82.91;101502.78;5118533;28;20059;-62
2023/08/07 10:10:16;;;;;;;11.32;2.90;;;;;;;16.01;81.47;101501.09;5098048;28;20047;-65
2023/08/07 10:12:45;;;;;;;11.25;3.20;;;;;;;16.07;77.95;101505.47;5112193;28;20039;-64
2023/08/07 10:15:15;;;;;;;7.32;2.92;;;;;;;16.10;77.55;101506.81;5112899;28;20074;-62
2023/08/07 10:17:43;;;;;;;9.13;2.78;;;;;;;16.11;79.28;101498.25;5115087;28;20051;-65
2023/08/07 10:20:12;;;;;;;15.13;3.58;;;;;;;16.14;77.48;101516.94;5114245;28;20514;-64
2023/08/07 10:22:41;;;;;;;8.95;2.92;;;;;;;16.19;77.99;101519.66;5114590;28;20043;-65
2023/08/07 10:25:10;;;;;;;12.30;3.10;;;;;;;16.14;74.21;101508.69;5106622;28;20048;-64
2023/08/07 10:27:40;;;;;;;9.38;3.00;;;;;;;16.12;76.05;101510.09;5115295;28;20048;-63
2023/08/07 10:30:12;;;;;;;9.23;2.83;;;;;;;16.10;75.71;101517.81;5107211;28;20036;-64
2023/08/07 10:32:41;;;;;;;7.65;2.80;;;;;;;16.09;75.42;101519.75;5094402;28;20450;-63
2023/08/07 10:35:09;;;;;;;12.40;3.50;;;;;;;16.12;76.83;101535.66;5110638;28;20039;-67
2023/08/07 10:37:44;;;;;;;10.18;3.25;;;;;;;16.11;75.13;101525.75;5114937;28;20092;-64
2023/08/07 10:40:13;;;;;;;12.93;3.00;;;;;;;16.10;75.50;101526.88;5114182;28;20047;-63
2023/08/07 10:42:58;;;;;;;10.57;3.28;;;;;;;16.09;77.24;101516.16;5097728;28;20054;-63
2023/08/07 10:45:27;;;;;;;9.33;3.40;;;;;;;16.12;79.16;101527.41;5096565;28;20411;-68
2023/08/07 10:48:12;;;;;;;7.70;2.75;;;;;;;16.14;76.90;101524.38;5093691;28;20104;-63
2023/08/07 10:50:58;;;;;;;10.85;2.75;;;;;;;16.14;78.04;101524.38;5105726;28;20051;-63
2023/08/07 10:53:33;;;;;;;9.23;3.03;;;;;;;16.13;77.80;101526.28;5097020;28;20052;-65
2023/08/07 10:56:07;;;;;;;11.27;3.17;;;;;;;16.17;77.67;101524.63;5113319;28;20415;-64
2023/08/07 10:58:39;;;;;;;13.23;3.25;;;;;;;16.25;78.20;101530.59;5113768;28;20043;-65
2023/08/07 11:01:20;;;;;;;10.52;3.20;;;;;;;16.35;75.74;101536.81;5095275;28;20055;-64
2023/08/07 11:03:59;;;;;;;10.73;3.10;;;;;;;16.49;77.29;101533.41;5097058;28;20047;-63
2023/08/07 11:06:32;;;;;;;12.93;5.72;;;;;;;16.54;72.95;101531.41;5113739;28;20040;-64
2023/08/07 11:09:06;;;;;;;18.58;6.57;;;;;;;16.56;74.80;101531.13;5115096;28;20139;-65
2023/08/07 11:11:39;;;;;;;18.75;9.05;;;;;;;16.58;72.70;101548.97;5114209;28;20043;-65
2023/08/07 11:14:17;;;;;;;11.32;3.33;;;;;;;16.59;70.79;101536.84;5114177;28;20069;-64
2023/08/07 11:16:46;;;;;;;11.18;3.28;;;;;;;16.59;70.56;101534.09;5114250;28;20050;-64
2023/08/07 11:19:20;;;;;;;9.25;3.05;;;;;;;16.66;70.87;101546.69;5097409;28;20059;-66
2023/08/07 11:21:50;;;;;;;11.57;3.15;;;;;;;16.67;69.02;101546.44;5114660;28;20062;-64